Tropical Cyclones
[Index]
Main Index Home Page Stock Weather Photos Extreme Storms Discussion Storm News and Storm Chasing Reports Tropical Cyclones / Hurricanes / Typhoons Weather Data and Links Wild Fires / Bushfires Weather Observation Techniques Weather Picture Catalogue Tornado Pictures and Reports Stock Video Footage and DVDs for sale
Season 1979-1980 Tropical Cyclone ENID Track Map
Season 1979-1980 Summaries: [BoM-AU] [JTWC-AU] [JTWC-SIO] [JTWC-SPAC] [JTWC-SH]
<<- Previous TC | BoM 1979-1980 Season | Next TC ->>

click for intensity scale information  Lat/long Grid: Show Hide

 Date Labels: Show Hide

Bureau of Meteorology Tropical Cyclone Data

Name: ENID
Number: 603 / 197980_10

12 Feb 1980 00:00 UTC to 18 Feb 1980 00:00 UTC

    date/time    lat    long    hPa   cat  kts
1980-02-12 00   16.3   130.9   1001         25          
1980-02-12 06   16.0   130.7   1001         25          
1980-02-12 12   15.6   130.3   1001         25          
1980-02-12 18   15.4   129.8   1000         25          
1980-02-13 00   15.4   129.2   1000         25          
1980-02-13 06   15.9   128.5    999         25          
1980-02-13 12   16.3   127.8    998         25          
1980-02-13 18   16.6   127.2    997         25          
1980-02-14 00   16.8   126.3    996         25          
1980-02-14 06   16.9   125.5    995    1    25          
1980-02-14 12   17.0   124.5    993    1    30          
1980-02-14 18   17.2   123.2    992    1    30          
1980-02-15 00   17.4   122.1    990    1    40          
1980-02-15 06   17.9   121.2    985    2    45          
1980-02-15 12   17.8   120.6    979    2    55          
1980-02-15 15   17.7   120.3    976    2    60          
1980-02-15 18   17.6   120.4    973    2    65          
1980-02-15 21   17.7   120.8    969    3    75          
1980-02-16 00   17.9   120.6    965    3    80          
1980-02-16 06   18.3   120.5    957    3    85          
1980-02-16 12   18.7   120.4    950    4    90          
1980-02-16 18   19.1   120.4    943    4    100          
1980-02-17 00   19.5   120.4    930    4    110          
1980-02-17 06   20.3   120.3    940    4    95          
1980-02-17 12   21.1   120.1    955    4    70          
1980-02-17 18   21.8   119.9    975    2    45          
1980-02-18 00   22.6   119.8    990    1    35          
Winds are 10-min average.

Tropical cyclone tracks developed by Michael Bath using data from the Bureau of Meteorology and Google Maps.


[Australian Severe Weather index] [Copyright Notice] [Email Contacts] [Search This Site] [Privacy Policy]
Document: tropical_cyclone_enid.htm Updated: 4 April 2018